sensor_id;sensor_type;location;lat;lon;timestamp;pressure;altitude;pressure_sealevel;temperature;humidity
6942;BME280;3510;43.200;27.920;2023-09-08T00:01:12;101418.00;;;25.48;45.18
6942;BME280;3510;43.200;27.920;2023-09-08T00:03:39;101424.53;;;25.13;45.87
6942;BME280;3510;43.200;27.920;2023-09-08T00:06:05;101423.06;;;25.45;45.43
6942;BME280;3510;43.200;27.920;2023-09-08T00:08:33;101397.03;;;25.37;45.59
6942;BME280;3510;43.200;27.920;2023-09-08T00:11:00;101394.91;;;25.25;45.46
6942;BME280;3510;43.200;27.920;2023-09-08T00:13:27;101402.53;;;25.22;45.38
6942;BME280;3510;43.200;27.920;2023-09-08T00:15:54;101429.34;;;25.03;45.81
6942;BME280;3510;43.200;27.920;2023-09-08T00:18:20;101399.63;;;24.65;46.57
6942;BME280;3510;43.200;27.920;2023-09-08T00:20:48;101394.34;;;24.84;45.57
6942;BME280;3510;43.200;27.920;2023-09-08T00:23:15;101390.28;;;24.67;46.17
6942;BME280;3510;43.200;27.920;2023-09-08T00:25:43;101399.47;;;24.84;45.57
6942;BME280;3510;43.200;27.920;2023-09-08T00:28:09;101402.84;;;25.07;44.95
6942;BME280;3510;43.200;27.920;2023-09-08T00:30:36;101407.19;;;25.08;45.02
6942;BME280;3510;43.200;27.920;2023-09-08T00:33:03;101406.09;;;24.78;45.19
6942;BME280;3510;43.200;27.920;2023-09-08T00:35:34;101387.28;;;24.80;44.78
6942;BME280;3510;43.200;27.920;2023-09-08T00:38:01;101368.72;;;24.65;44.65
6942;BME280;3510;43.200;27.920;2023-09-08T00:43:49;101399.53;;;25.10;44.41
6942;BME280;3510;43.200;27.920;2023-09-08T00:46:30;101405.34;;;25.06;44.29
6942;BME280;3510;43.200;27.920;2023-09-08T00:48:57;101399.91;;;24.97;44.35
6942;BME280;3510;43.200;27.920;2023-09-08T00:51:24;101375.53;;;24.63;44.51
6942;BME280;3510;43.200;27.920;2023-09-08T00:53:50;101402.53;;;24.98;44.18
6942;BME280;3510;43.200;27.920;2023-09-08T00:56:18;101394.47;;;24.41;44.74
6942;BME280;3510;43.200;27.920;2023-09-08T00:58:45;101385.53;;;24.79;44.19
6942;BME280;3510;43.200;27.920;2023-09-08T01:04:37;101402.25;;;24.91;44.67
6942;BME280;3510;43.200;27.920;2023-09-08T01:07:06;101398.31;;;24.76;44.32
6942;BME280;3510;43.200;27.920;2023-09-08T01:09:33;101386.41;;;24.80;44.08
6942;BME280;3510;43.200;27.920;2023-09-08T01:12:02;101399.94;;;24.98;43.62
6942;BME280;3510;43.200;27.920;2023-09-08T01:14:29;101404.75;;;25.12;43.70
6942;BME280;3510;43.200;27.920;2023-09-08T01:16:56;101366.31;;;24.94;43.23
6942;BME280;3510;43.200;27.920;2023-09-08T01:19:23;101397.94;;;25.14;43.37
6942;BME280;3510;43.200;27.920;2023-09-08T01:22:11;101354.16;;;24.90;43.23
6942;BME280;3510;43.200;27.920;2023-09-08T01:25:03;101355.91;;;24.91;42.54
6942;BME280;3510;43.200;27.920;2023-09-08T01:27:33;101360.66;;;25.04;42.70
6942;BME280;3510;43.200;27.920;2023-09-08T01:30:01;101398.97;;;25.44;42.12
6942;BME280;3510;43.200;27.920;2023-09-08T01:32:29;101386.56;;;25.08;42.75
6942;BME280;3510;43.200;27.920;2023-09-08T01:34:56;101397.38;;;25.48;42.29
6942;BME280;3510;43.200;27.920;2023-09-08T01:37:25;101397.81;;;25.36;42.03
6942;BME280;3510;43.200;27.920;2023-09-08T01:39:51;101404.75;;;25.12;42.68
6942;BME280;3510;43.200;27.920;2023-09-08T01:42:20;101395.00;;;25.28;42.20
6942;BME280;3510;43.200;27.920;2023-09-08T01:44:46;101391.75;;;25.59;41.41
6942;BME280;3510;43.200;27.920;2023-09-08T01:47:13;101381.19;;;25.26;42.69
6942;BME280;3510;43.200;27.920;2023-09-08T01:49:40;101358.72;;;25.48;41.74
6942;BME280;3510;43.200;27.920;2023-09-08T01:52:06;101392.59;;;25.33;42.35
6942;BME280;3510;43.200;27.920;2023-09-08T01:54:33;101381.81;;;25.19;41.68
6942;BME280;3510;43.200;27.920;2023-09-08T01:57:00;101396.03;;;25.59;42.20
6942;BME280;3510;43.200;27.920;2023-09-08T01:59:29;101396.91;;;25.59;42.62
6942;BME280;3510;43.200;27.920;2023-09-08T02:01:55;101390.56;;;25.24;43.61
6942;BME280;3510;43.200;27.920;2023-09-08T02:04:22;101397.34;;;24.97;44.07
6942;BME280;3510;43.200;27.920;2023-09-08T02:06:49;101392.28;;;24.76;45.07
6942;BME280;3510;43.200;27.920;2023-09-08T02:09:16;101378.31;;;24.69;44.68
6942;BME280;3510;43.200;27.920;2023-09-08T02:11:43;101373.53;;;24.80;45.14
6942;BME280;3510;43.200;27.920;2023-09-08T02:14:09;101393.31;;;25.05;44.71
6942;BME280;3510;43.200;27.920;2023-09-08T02:16:38;101377.03;;;24.58;45.72
6942;BME280;3510;43.200;27.920;2023-09-08T02:19:05;101390.88;;;24.60;45.50
6942;BME280;3510;43.200;27.920;2023-09-08T02:21:32;101389.91;;;24.35;44.12
6942;BME280;3510;43.200;27.920;2023-09-08T02:23:58;101376.84;;;24.52;45.37
6942;BME280;3510;43.200;27.920;2023-09-08T02:26:25;101380.06;;;24.46;44.59
6942;BME280;3510;43.200;27.920;2023-09-08T02:28:53;101385.72;;;24.60;44.77
6942;BME280;3510;43.200;27.920;2023-09-08T02:31:19;101370.03;;;24.54;44.07
6942;BME280;3510;43.200;27.920;2023-09-08T02:33:47;101376.72;;;24.73;43.53
6942;BME280;3510;43.200;27.920;2023-09-08T02:36:14;101365.13;;;24.60;43.62
6942;BME280;3510;43.200;27.920;2023-09-08T02:38:41;101349.19;;;24.70;43.17
6942;BME280;3510;43.200;27.920;2023-09-08T02:41:07;101356.03;;;24.70;42.95
6942;BME280;3510;43.200;27.920;2023-09-08T02:43:34;101353.25;;;25.13;42.45
6942;BME280;3510;43.200;27.920;2023-09-08T02:46:01;101361.88;;;24.90;42.67
6942;BME280;3510;43.200;27.920;2023-09-08T02:48:27;101365.34;;;25.14;42.34
6942;BME280;3510;43.200;27.920;2023-09-08T02:50:55;101363.38;;;25.08;42.34
6942;BME280;3510;43.200;27.920;2023-09-08T02:53:23;101318.59;;;25.05;41.54
6942;BME280;3510;43.200;27.920;2023-09-08T02:55:54;101364.91;;;25.54;41.75
6942;BME280;3510;43.200;27.920;2023-09-08T02:58:20;101356.56;;;25.34;42.01
6942;BME280;3510;43.200;27.920;2023-09-08T03:00:47;101342.03;;;25.37;41.37
6942;BME280;3510;43.200;27.920;2023-09-08T03:03:14;101357.22;;;25.03;42.05
6942;BME280;3510;43.200;27.920;2023-09-08T03:05:40;101351.63;;;25.42;41.37
6942;BME280;3510;43.200;27.920;2023-09-08T03:08:08;101365.22;;;25.37;41.49
6942;BME280;3510;43.200;27.920;2023-09-08T03:10:35;101367.56;;;25.29;42.19
6942;BME280;3510;43.200;27.920;2023-09-08T03:13:02;101366.81;;;25.60;41.59
6942;BME280;3510;43.200;27.920;2023-09-08T03:15:29;101358.28;;;25.35;41.79
6942;BME280;3510;43.200;27.920;2023-09-08T03:17:56;101338.16;;;25.24;41.97
6942;BME280;3510;43.200;27.920;2023-09-08T03:20:23;101360.63;;;25.28;42.09
6942;BME280;3510;43.200;27.920;2023-09-08T03:22:51;101364.88;;;25.02;42.44
6942;BME280;3510;43.200;27.920;2023-09-08T03:28:16;101352.84;;;24.77;42.80
6942;BME280;3510;43.200;27.920;2023-09-08T03:30:43;101338.09;;;24.73;42.82
6942;BME280;3510;43.200;27.920;2023-09-08T03:33:09;101358.97;;;24.80;42.90
6942;BME280;3510;43.200;27.920;2023-09-08T03:35:36;101361.16;;;24.94;42.60
6942;BME280;3510;43.200;27.920;2023-09-08T03:38:03;101358.88;;;24.77;42.99
6942;BME280;3510;43.200;27.920;2023-09-08T03:40:30;101360.22;;;24.92;42.76
6942;BME280;3510;43.200;27.920;2023-09-08T03:42:56;101372.69;;;24.79;43.14
6942;BME280;3510;43.200;27.920;2023-09-08T03:45:24;101362.22;;;24.75;43.60
6942;BME280;3510;43.200;27.920;2023-09-08T03:47:51;101365.78;;;24.78;43.40
6942;BME280;3510;43.200;27.920;2023-09-08T03:50:18;101361.03;;;24.91;43.24
6942;BME280;3510;43.200;27.920;2023-09-08T03:52:46;101358.84;;;25.01;42.70
6942;BME280;3510;43.200;27.920;2023-09-08T03:55:14;101354.53;;;24.76;43.37
6942;BME280;3510;43.200;27.920;2023-09-08T03:57:42;101357.50;;;24.87;43.47
6942;BME280;3510;43.200;27.920;2023-09-08T04:00:09;101332.47;;;24.12;44.65
6942;BME280;3510;43.200;27.920;2023-09-08T04:02:38;101373.41;;;24.51;44.24
6942;BME280;3510;43.200;27.920;2023-09-08T04:05:05;101357.53;;;24.63;44.10
6942;BME280;3510;43.200;27.920;2023-09-08T04:07:32;101379.75;;;24.38;44.25
6942;BME280;3510;43.200;27.920;2023-09-08T04:09:59;101366.31;;;24.46;44.56
6942;BME280;3510;43.200;27.920;2023-09-08T04:12:25;101400.16;;;24.80;43.71
6942;BME280;3510;43.200;27.920;2023-09-08T04:14:52;101386.50;;;24.81;43.56
6942;BME280;3510;43.200;27.920;2023-09-08T04:17:19;101388.19;;;24.57;44.34
6942;BME280;3510;43.200;27.920;2023-09-08T04:19:47;101389.22;;;24.62;44.69
6942;BME280;3510;43.200;27.920;2023-09-08T04:22:14;101342.59;;;24.54;44.36
6942;BME280;3510;43.200;27.920;2023-09-08T04:24:41;101383.38;;;25.14;43.60
6942;BME280;3510;43.200;27.920;2023-09-08T04:27:08;101378.88;;;24.84;43.94
6942;BME280;3510;43.200;27.920;2023-09-08T04:29:35;101379.47;;;25.25;43.50
6942;BME280;3510;43.200;27.920;2023-09-08T04:32:03;101396.34;;;25.17;44.09
6942;BME280;3510;43.200;27.920;2023-09-08T04:34:36;101402.28;;;25.15;44.07
6942;BME280;3510;43.200;27.920;2023-09-08T04:37:04;101372.13;;;25.12;44.22
6942;BME280;3510;43.200;27.920;2023-09-08T04:39:31;101383.44;;;25.17;43.95
6942;BME280;3510;43.200;27.920;2023-09-08T04:41:58;101369.59;;;25.14;44.35
6942;BME280;3510;43.200;27.920;2023-09-08T04:44:25;101392.38;;;25.52;44.26
6942;BME280;3510;43.200;27.920;2023-09-08T04:46:52;101390.13;;;25.10;45.28
6942;BME280;3510;43.200;27.920;2023-09-08T04:49:19;101393.97;;;25.23;45.38
6942;BME280;3510;43.200;27.920;2023-09-08T04:51:46;101399.50;;;25.34;45.67
6942;BME280;3510;43.200;27.920;2023-09-08T04:54:14;101395.28;;;25.10;46.38
6942;BME280;3510;43.200;27.920;2023-09-08T04:56:41;101407.34;;;25.64;45.09
6942;BME280;3510;43.200;27.920;2023-09-08T04:59:08;101357.41;;;25.35;45.53
6942;BME280;3510;43.200;27.920;2023-09-08T05:01:35;101415.59;;;25.79;45.70
6942;BME280;3510;43.200;27.920;2023-09-08T05:04:03;101406.41;;;26.15;45.72
6942;BME280;3510;43.200;27.920;2023-09-08T05:06:30;101380.06;;;26.26;44.85
6942;BME280;3510;43.200;27.920;2023-09-08T05:08:57;101409.53;;;26.33;45.91
6942;BME280;3510;43.200;27.920;2023-09-08T05:11:26;101404.84;;;26.48;46.03
6942;BME280;3510;43.200;27.920;2023-09-08T05:13:53;101407.50;;;26.23;46.66
6942;BME280;3510;43.200;27.920;2023-09-08T05:16:20;101397.41;;;26.59;45.98
6942;BME280;3510;43.200;27.920;2023-09-08T05:19:01;101393.22;;;26.64;46.35
6942;BME280;3510;43.200;27.920;2023-09-08T05:21:28;101394.09;;;26.36;47.90
6942;BME280;3510;43.200;27.920;2023-09-08T05:23:55;101396.63;;;26.33;48.41
6942;BME280;3510;43.200;27.920;2023-09-08T05:26:22;101384.91;;;26.44;48.66
6942;BME280;3510;43.200;27.920;2023-09-08T05:28:50;101406.34;;;27.03;48.44
6942;BME280;3510;43.200;27.920;2023-09-08T05:31:17;101407.69;;;27.21;47.98
6942;BME280;3510;43.200;27.920;2023-09-08T05:33:45;101406.69;;;27.16;49.70
6942;BME280;3510;43.200;27.920;2023-09-08T05:36:12;101405.91;;;27.18;50.41
6942;BME280;3510;43.200;27.920;2023-09-08T05:38:38;101377.09;;;27.38;49.79
6942;BME280;3510;43.200;27.920;2023-09-08T05:41:05;101410.09;;;27.48;50.33
6942;BME280;3510;43.200;27.920;2023-09-08T05:43:32;101395.75;;;27.61;50.14
6942;BME280;3510;43.200;27.920;2023-09-08T05:46:00;101412.88;;;27.92;49.89
6942;BME280;3510;43.200;27.920;2023-09-08T05:48:27;101405.06;;;27.89;49.93
6942;BME280;3510;43.200;27.920;2023-09-08T05:50:54;101412.06;;;27.58;51.19
6942;BME280;3510;43.200;27.920;2023-09-08T05:53:21;101403.94;;;27.78;50.42
6942;BME280;3510;43.200;27.920;2023-09-08T05:55:48;101378.91;;;27.77;49.85
6942;BME280;3510;43.200;27.920;2023-09-08T05:58:15;101419.84;;;27.25;51.93
6942;BME280;3510;43.200;27.920;2023-09-08T06:00:42;101426.06;;;27.66;50.56
6942;BME280;3510;43.200;27.920;2023-09-08T06:03:11;101418.25;;;27.65;50.90
6942;BME280;3510;43.200;27.920;2023-09-08T06:05:37;101432.41;;;27.78;51.39
6942;BME280;3510;43.200;27.920;2023-09-08T06:08:04;101432.25;;;28.09;51.08
6942;BME280;3510;43.200;27.920;2023-09-08T06:10:30;101432.25;;;28.09;51.83
6942;BME280;3510;43.200;27.920;2023-09-08T06:12:57;101403.34;;;28.29;51.51
6942;BME280;3510;43.200;27.920;2023-09-08T06:15:23;101423.25;;;28.70;50.96
6942;BME280;3510;43.200;27.920;2023-09-08T06:17:50;101423.09;;;28.64;51.86
6942;BME280;3510;43.200;27.920;2023-09-08T06:20:18;101427.19;;;29.44;50.09
6942;BME280;3510;43.200;27.920;2023-09-08T06:22:45;101421.09;;;29.95;49.02
6942;BME280;3510;43.200;27.920;2023-09-08T06:25:12;101429.44;;;29.74;49.96
6942;BME280;3510;43.200;27.920;2023-09-08T06:27:39;101411.47;;;29.88;50.16
6942;BME280;3510;43.200;27.920;2023-09-08T06:30:06;101438.38;;;29.95;50.22
6942;BME280;3510;43.200;27.920;2023-09-08T06:32:39;101434.16;;;29.47;50.71
6942;BME280;3510;43.200;27.920;2023-09-08T06:35:06;101435.41;;;29.69;50.85
6942;BME280;3510;43.200;27.920;2023-09-08T06:37:36;101381.53;;;30.13;49.31
6942;BME280;3510;43.200;27.920;2023-09-08T06:40:04;101389.06;;;29.38;51.18
6942;BME280;3510;43.200;27.920;2023-09-08T06:42:43;101406.53;;;30.05;50.26
6942;BME280;3510;43.200;27.920;2023-09-08T07:00:58;101425.69;;;30.14;50.94
6942;BME280;3510;43.200;27.920;2023-09-08T07:03:28;101392.41;;;30.50;49.25
6942;BME280;3510;43.200;27.920;2023-09-08T07:06:04;101408.66;;;31.09;47.56
6942;BME280;3510;43.200;27.920;2023-09-08T07:08:42;101363.47;;;30.98;47.08
6942;BME280;3510;43.200;27.920;2023-09-08T07:11:09;101444.09;;;31.96;46.14
6942;BME280;3510;43.200;27.920;2023-09-08T07:13:36;101446.75;;;32.07;45.62
6942;BME280;3510;43.200;27.920;2023-09-08T07:16:07;101440.28;;;31.54;46.25
6942;BME280;3510;43.200;27.920;2023-09-08T07:18:33;101441.13;;;30.68;48.98
6942;BME280;3510;43.200;27.920;2023-09-08T07:21:02;101478.91;;;29.85;49.00
6942;BME280;3510;43.200;27.920;2023-09-08T07:23:29;101445.25;;;28.92;48.07
6942;BME280;3510;43.200;27.920;2023-09-08T07:25:57;101425.38;;;29.38;46.84
6942;BME280;3510;43.200;27.920;2023-09-08T07:28:24;101460.47;;;28.76;47.18
6942;BME280;3510;43.200;27.920;2023-09-08T07:30:51;101439.22;;;28.50;47.74
6942;BME280;3510;43.200;27.920;2023-09-08T07:33:20;101458.38;;;28.58;47.96
6942;BME280;3510;43.200;27.920;2023-09-08T07:35:48;101410.69;;;27.72;49.41
6942;BME280;3510;43.200;27.920;2023-09-08T07:38:15;101461.00;;;28.21;49.72
6942;BME280;3510;43.200;27.920;2023-09-08T07:40:41;101458.56;;;28.28;49.99
6942;BME280;3510;43.200;27.920;2023-09-08T07:43:08;101386.25;;;27.60;51.21
6942;BME280;3510;43.200;27.920;2023-09-08T07:45:35;101461.91;;;28.22;50.96
6942;BME280;3510;43.200;27.920;2023-09-08T07:48:02;101474.44;;;28.04;51.50
6942;BME280;3510;43.200;27.920;2023-09-08T07:50:30;101416.03;;;27.79;51.13
6942;BME280;3510;43.200;27.920;2023-09-08T07:52:57;101484.34;;;27.85;51.77
6942;BME280;3510;43.200;27.920;2023-09-08T07:55:25;101469.88;;;27.93;51.93
6942;BME280;3510;43.200;27.920;2023-09-08T07:57:55;101460.56;;;27.67;52.56
6942;BME280;3510;43.200;27.920;2023-09-08T08:00:22;101462.22;;;27.99;52.08
6942;BME280;3510;43.200;27.920;2023-09-08T08:02:53;101461.69;;;27.77;52.79
6942;BME280;3510;43.200;27.920;2023-09-08T08:05:21;101418.38;;;27.69;52.79
6942;BME280;3510;43.200;27.920;2023-09-08T08:07:52;101491.97;;;27.81;54.87
6942;BME280;3510;43.200;27.920;2023-09-08T08:10:20;101506.47;;;27.41;58.11
6942;BME280;3510;43.200;27.920;2023-09-08T08:12:47;101501.56;;;26.90;59.77
6942;BME280;3510;43.200;27.920;2023-09-08T08:15:15;101473.00;;;26.26;60.04
6942;BME280;3510;43.200;27.920;2023-09-08T08:17:42;101484.22;;;26.28;61.38
6942;BME280;3510;43.200;27.920;2023-09-08T08:20:11;101492.56;;;25.93;62.14
6942;BME280;3510;43.200;27.920;2023-09-08T08:22:42;101488.06;;;25.87;62.61
6942;BME280;3510;43.200;27.920;2023-09-08T08:25:14;101420.63;;;25.49;62.00
6942;BME280;3510;43.200;27.920;2023-09-08T08:27:44;101483.22;;;26.23;61.72
6942;BME280;3510;43.200;27.920;2023-09-08T08:30:11;101471.19;;;25.97;61.16
6942;BME280;3510;43.200;27.920;2023-09-08T08:32:38;101470.09;;;26.44;61.03
6942;BME280;3510;43.200;27.920;2023-09-08T08:35:06;101480.41;;;26.73;59.31
6942;BME280;3510;43.200;27.920;2023-09-08T08:37:33;101482.56;;;26.88;59.19
6942;BME280;3510;43.200;27.920;2023-09-08T08:40:00;101427.72;;;26.98;57.93
6942;BME280;3510;43.200;27.920;2023-09-08T08:42:32;101470.59;;;27.21;57.58
6942;BME280;3510;43.200;27.920;2023-09-08T08:44:59;101488.22;;;27.69;56.42
6942;BME280;3510;43.200;27.920;2023-09-08T08:47:27;101489.13;;;28.05;55.24
6942;BME280;3510;43.200;27.920;2023-09-08T08:49:54;101491.97;;;27.81;55.91
6942;BME280;3510;43.200;27.920;2023-09-08T08:52:21;101491.09;;;28.16;54.66
6942;BME280;3510;43.200;27.920;2023-09-08T08:54:48;101492.59;;;27.72;56.45
6942;BME280;3510;43.200;27.920;2023-09-08T08:57:14;101499.19;;;27.59;56.34
6942;BME280;3510;43.200;27.920;2023-09-08T08:59:43;101495.78;;;27.62;56.85
6942;BME280;3510;43.200;27.920;2023-09-08T09:02:11;101491.47;;;27.62;56.17
6942;BME280;3510;43.200;27.920;2023-09-08T09:04:40;101479.28;;;27.90;54.98
6942;BME280;3510;43.200;27.920;2023-09-08T09:07:07;101479.88;;;27.80;54.83
6942;BME280;3510;43.200;27.920;2023-09-08T09:09:34;101459.84;;;28.45;53.73
6942;BME280;3510;43.200;27.920;2023-09-08T09:12:01;101467.94;;;28.60;52.90
6942;BME280;3510;43.200;27.920;2023-09-08T09:14:32;101476.66;;;29.06;52.42
6942;BME280;3510;43.200;27.920;2023-09-08T09:17:00;101493.00;;;29.49;50.93
6942;BME280;3510;43.200;27.920;2023-09-08T09:19:30;101491.16;;;29.94;50.23
6942;BME280;3510;43.200;27.920;2023-09-08T09:21:58;101443.25;;;29.73;50.40
6942;BME280;3510;43.200;27.920;2023-09-08T09:24:31;101482.75;;;30.71;49.72
6942;BME280;3510;43.200;27.920;2023-09-08T09:26:59;101464.34;;;30.52;48.58
6942;BME280;3510;43.200;27.920;2023-09-08T09:29:26;101486.91;;;30.58;47.65
6942;BME280;3510;43.200;27.920;2023-09-08T09:31:55;101471.63;;;30.81;46.56
6942;BME280;3510;43.200;27.920;2023-09-08T09:34:23;101454.78;;;30.51;49.17
6942;BME280;3510;43.200;27.920;2023-09-08T09:36:51;101474.88;;;30.65;50.03
6942;BME280;3510;43.200;27.920;2023-09-08T09:39:19;101478.91;;;31.13;49.38
6942;BME280;3510;43.200;27.920;2023-09-08T09:42:02;101428.28;;;30.80;49.10
6942;BME280;3510;43.200;27.920;2023-09-08T09:44:29;101438.81;;;30.92;46.91
6942;BME280;3510;43.200;27.920;2023-09-08T09:46:56;101368.19;;;30.54;46.06
6942;BME280;3510;43.200;27.920;2023-09-08T09:49:26;101445.13;;;31.16;45.75
6942;BME280;3510;43.200;27.920;2023-09-08T09:52:07;101445.22;;;31.23;44.25
6942;BME280;3510;43.200;27.920;2023-09-08T09:54:47;101455.78;;;31.40;45.32
6942;BME280;3510;43.200;27.920;2023-09-08T09:57:16;101445.31;;;31.31;42.96
6942;BME280;3510;43.200;27.920;2023-09-08T09:59:46;101447.66;;;31.11;42.80
6942;BME280;3510;43.200;27.920;2023-09-08T10:02:16;101452.97;;;31.19;43.80
6942;BME280;3510;43.200;27.920;2023-09-08T10:10:53;101437.16;;;30.97;44.67
6942;BME280;3510;43.200;27.920;2023-09-08T10:13:23;101445.00;;;31.02;45.43
6942;BME280;3510;43.200;27.920;2023-09-08T10:15:56;101452.84;;;31.06;45.47
6942;BME280;3510;43.200;27.920;2023-09-08T10:18:23;101405.97;;;31.00;46.32
6942;BME280;3510;43.200;27.920;2023-09-08T10:21:06;101382.16;;;30.65;45.97
6942;BME280;3510;43.200;27.920;2023-09-08T10:23:36;101400.63;;;30.88;44.88
6942;BME280;3510;43.200;27.920;2023-09-08T10:29:15;101430.38;;;31.15;44.30
6942;BME280;3510;43.200;27.920;2023-09-08T10:31:43;101359.31;;;30.36;45.79
6942;BME280;3510;43.200;27.920;2023-09-08T10:34:11;101450.03;;;30.87;47.86
6942;BME280;3510;43.200;27.920;2023-09-08T10:36:38;101455.88;;;30.70;48.16
6942;BME280;3510;43.200;27.920;2023-09-08T10:39:33;101452.56;;;30.79;47.44
6942;BME280;3510;43.200;27.920;2023-09-08T10:42:20;101429.09;;;30.74;46.69
6942;BME280;3510;43.200;27.920;2023-09-08T10:44:58;101425.41;;;30.57;46.46
6942;BME280;3510;43.200;27.920;2023-09-08T10:47:32;101448.47;;;31.02;46.30
6942;BME280;3510;43.200;27.920;2023-09-08T10:50:16;101451.66;;;30.77;46.24
6942;BME280;3510;43.200;27.920;2023-09-08T10:53:05;101428.09;;;30.63;44.96
6942;BME280;3510;43.200;27.920;2023-09-08T10:55:48;101445.75;;;30.90;46.32
6942;BME280;3510;43.200;27.920;2023-09-08T10:58:31;101424.41;;;30.47;45.22
6942;BME280;3510;43.200;27.920;2023-09-08T11:01:01;101453.91;;;30.49;44.35
6942;BME280;3510;43.200;27.920;2023-09-08T11:03:43;101448.22;;;30.79;44.10
6942;BME280;3510;43.200;27.920;2023-09-08T11:06:11;101455.31;;;30.96;42.78
6942;BME280;3510;43.200;27.920;2023-09-08T11:08:40;101443.28;;;31.05;42.51
6942;BME280;3510;43.200;27.920;2023-09-08T11:11:21;101445.97;;;31.15;43.45
6942;BME280;3510;43.200;27.920;2023-09-08T11:13:48;101452.94;;;31.16;44.74
6942;BME280;3510;43.200;27.920;2023-09-08T11:16:17;101446.94;;;31.26;43.43
6942;BME280;3510;43.200;27.920;2023-09-08T11:18:50;101448.91;;;31.47;44.00
6942;BME280;3510;43.200;27.920;2023-09-08T11:21:17;101439.63;;;31.84;42.74
6942;BME280;3510;43.200;27.920;2023-09-08T11:23:44;101453.41;;;31.68;42.76
6942;BME280;3510;43.200;27.920;2023-09-08T11:26:12;101449.06;;;31.65;42.66
6942;BME280;3510;43.200;27.920;2023-09-08T11:28:39;101441.28;;;30.81;43.23
6942;BME280;3510;43.200;27.920;2023-09-08T11:31:07;101456.63;;;30.60;44.73
6942;BME280;3510;43.200;27.920;2023-09-08T11:33:35;101456.31;;;30.34;46.00
6942;BME280;3510;43.200;27.920;2023-09-08T11:36:11;101440.78;;;29.81;45.96
6942;BME280;3510;43.200;27.920;2023-09-08T11:38:37;101441.53;;;29.74;45.42
6942;BME280;3510;43.200;27.920;2023-09-08T11:41:05;101439.81;;;30.32;47.15
6942;BME280;3510;43.200;27.920;2023-09-08T11:43:32;101422.97;;;30.04;46.20
6942;BME280;3510;43.200;27.920;2023-09-08T11:46:00;101407.41;;;30.07;46.75
6942;BME280;3510;43.200;27.920;2023-09-08T11:48:26;101430.22;;;30.29;46.60
6942;BME280;3510;43.200;27.920;2023-09-08T11:50:55;101425.41;;;30.57;47.03
6942;BME280;3510;43.200;27.920;2023-09-08T11:53:22;101434.97;;;30.62;46.78
6942;BME280;3510;43.200;27.920;2023-09-08T11:55:49;101427.88;;;30.48;46.65
6942;BME280;3510;43.200;27.920;2023-09-08T11:58:16;101425.13;;;30.34;46.87
6942;BME280;3510;43.200;27.920;2023-09-08T12:00:45;101418.16;;;30.33;46.95
6942;BME280;3510;43.200;27.920;2023-09-08T12:03:15;101417.09;;;30.17;47.81
6942;BME280;3510;43.200;27.920;2023-09-08T12:05:44;101392.03;;;30.21;47.55
6942;BME280;3510;43.200;27.920;2023-09-08T12:08:13;101412.41;;;29.93;47.49
6942;BME280;3510;43.200;27.920;2023-09-08T12:10:40;101430.31;;;30.34;48.29
6942;BME280;3510;43.200;27.920;2023-09-08T12:13:08;101439.09;;;29.83;47.96
6942;BME280;3510;43.200;27.920;2023-09-08T12:15:37;101422.41;;;29.69;48.64
6942;BME280;3510;43.200;27.920;2023-09-08T12:18:13;101435.78;;;29.93;47.41
6942;BME280;3510;43.200;27.920;2023-09-08T12:20:44;101441.50;;;29.71;48.54
6942;BME280;3510;43.200;27.920;2023-09-08T12:23:19;101426.00;;;29.75;48.37
6942;BME280;3510;43.200;27.920;2023-09-08T12:25:47;101424.31;;;29.80;48.44
6942;BME280;3510;43.200;27.920;2023-09-08T12:28:13;101426.28;;;29.95;46.61
6942;BME280;3510;43.200;27.920;2023-09-08T12:30:40;101418.97;;;29.68;48.66
6942;BME280;3510;43.200;27.920;2023-09-08T12:33:07;101419.03;;;30.32;48.03
6942;BME280;3510;43.200;27.920;2023-09-08T12:35:34;101423.09;;;30.78;46.38
6942;BME280;3510;43.200;27.920;2023-09-08T12:38:02;101427.69;;;31.04;44.95
6942;BME280;3510;43.200;27.920;2023-09-08T12:40:30;101415.22;;;31.67;43.55
6942;BME280;3510;43.200;27.920;2023-09-08T12:42:57;101404.47;;;32.63;42.23
6942;BME280;3510;43.200;27.920;2023-09-08T12:45:26;101403.38;;;32.15;42.84
6942;BME280;3510;43.200;27.920;2023-09-08T12:47:54;101401.31;;;31.65;42.75
6942;BME280;3510;43.200;27.920;2023-09-08T12:50:23;101417.63;;;31.38;44.00
6942;BME280;3510;43.200;27.920;2023-09-08T12:52:50;101414.72;;;32.29;42.45
6942;BME280;3510;43.200;27.920;2023-09-08T12:55:18;101394.59;;;31.94;43.50
6942;BME280;3510;43.200;27.920;2023-09-08T12:57:46;101397.63;;;31.35;42.87
6942;BME280;3510;43.200;27.920;2023-09-08T13:00:16;101397.41;;;31.12;43.84
6942;BME280;3510;43.200;27.920;2023-09-08T13:02:45;101393.63;;;30.78;45.93
6942;BME280;3510;43.200;27.920;2023-09-08T13:05:12;101407.16;;;30.55;45.19
6942;BME280;3510;43.200;27.920;2023-09-08T13:07:39;101400.16;;;29.84;48.66
6942;BME280;3510;43.200;27.920;2023-09-08T13:10:07;101389.50;;;29.64;48.25
6942;BME280;3510;43.200;27.920;2023-09-08T13:12:34;101392.25;;;29.77;48.00
6942;BME280;3510;43.200;27.920;2023-09-08T13:15:03;101404.97;;;29.58;44.18
6942;BME280;3510;43.200;27.920;2023-09-08T13:17:30;101395.75;;;29.26;42.85
6942;BME280;3510;43.200;27.920;2023-09-08T13:19:57;101358.34;;;29.63;44.41
6942;BME280;3510;43.200;27.920;2023-09-08T13:22:24;101374.09;;;29.77;43.24
6942;BME280;3510;43.200;27.920;2023-09-08T13:24:50;101390.03;;;29.45;42.74
6942;BME280;3510;43.200;27.920;2023-09-08T13:27:17;101403.56;;;29.29;42.13
6942;BME280;3510;43.200;27.920;2023-09-08T13:29:44;101376.41;;;29.07;41.55
6942;BME280;3510;43.200;27.920;2023-09-08T13:32:12;101356.16;;;28.87;42.39
6942;BME280;3510;43.200;27.920;2023-09-08T13:34:39;101408.63;;;29.21;40.50
6942;BME280;3510;43.200;27.920;2023-09-08T13:37:08;101403.91;;;28.99;42.00
6942;BME280;3510;43.200;27.920;2023-09-08T13:39:36;101416.22;;;29.10;43.20
6942;BME280;3510;43.200;27.920;2023-09-08T13:42:03;101413.13;;;29.31;43.03